createdAt,value
2023-04-09T00:01:30.230Z,7.30
2023-04-09T00:05:33.732Z,7.36
2023-04-09T00:09:37.105Z,7.32
2023-04-09T00:13:40.198Z,7.32
2023-04-09T00:17:45.360Z,7.30
2023-04-09T00:21:48.570Z,7.27
2023-04-09T00:25:52.350Z,7.28
2023-04-09T00:29:55.532Z,7.28
2023-04-09T00:34:00.828Z,7.23
2023-04-09T00:38:04.022Z,7.24
2023-04-09T00:42:07.251Z,7.33
2023-04-09T00:46:10.720Z,7.34
2023-04-09T00:50:15.372Z,7.37
2023-04-09T00:54:18.636Z,7.38
2023-04-09T00:58:23.055Z,7.33
2023-04-09T01:02:26.853Z,7.39
2023-04-09T01:06:40.688Z,7.42
2023-04-09T01:10:48.582Z,7.43
2023-04-09T01:14:58.853Z,7.43
2023-04-09T01:19:08.862Z,7.41
2023-04-09T01:23:20.369Z,7.43
2023-04-09T01:27:24.027Z,7.43
2023-04-09T01:31:31.313Z,7.44
2023-04-09T01:35:34.368Z,7.42
2023-04-09T01:39:39.251Z,7.45
2023-04-09T01:43:43.544Z,7.47
2023-04-09T01:47:49.270Z,7.49
2023-04-09T01:51:52.446Z,7.48
2023-04-09T01:55:57.316Z,7.49
2023-04-09T02:00:01.117Z,7.48
2023-04-09T02:04:11.426Z,7.50
2023-04-09T02:08:20.995Z,7.47
2023-04-09T02:12:26.643Z,7.52
2023-04-09T02:16:31.074Z,7.52
2023-04-09T02:20:35.896Z,7.53
2023-04-09T02:24:39.237Z,7.51
2023-04-09T02:28:42.656Z,7.50
2023-04-09T02:32:45.848Z,7.47
2023-04-09T02:36:52.395Z,7.42
2023-04-09T02:40:55.827Z,7.51
2023-04-09T02:44:59.042Z,7.51
2023-04-09T02:49:02.315Z,7.52
2023-04-09T02:53:07.404Z,7.53
2023-04-09T02:57:10.293Z,7.49
2023-04-09T03:01:14.182Z,7.51
2023-04-09T03:05:17.129Z,7.48
2023-04-09T03:09:22.103Z,7.50
2023-04-09T03:13:26.344Z,7.49
2023-04-09T03:17:32.703Z,7.47
2023-04-09T03:21:36.060Z,7.47
2023-04-09T03:25:41.220Z,7.30
2023-04-09T03:29:44.847Z,7.45
2023-04-09T03:33:48.138Z,7.42
2023-04-09T03:37:51.343Z,7.43
2023-04-09T03:41:58.697Z,7.41
2023-04-09T03:46:02.032Z,7.36
2023-04-09T03:50:05.670Z,7.35
2023-04-09T03:54:08.603Z,7.30
2023-04-09T03:58:13.644Z,7.31
2023-04-09T04:02:17.094Z,7.25
2023-04-09T04:06:21.188Z,7.27
2023-04-09T04:10:24.336Z,7.21
2023-04-09T04:14:29.503Z,7.16
2023-04-09T04:18:33.106Z,7.10
2023-04-09T04:22:36.803Z,7.08
2023-04-09T04:26:41.772Z,7.06
2023-04-09T04:30:47.173Z,7.03
2023-04-09T04:34:51.496Z,7.03
2023-04-09T04:38:55.073Z,7.04
2023-04-09T04:42:58.287Z,7.06
2023-04-09T04:47:03.076Z,7.06
2023-04-09T04:51:06.254Z,7.08
2023-04-09T04:55:10.522Z,7.14
2023-04-09T04:59:14.184Z,7.18
2023-04-09T05:03:19.062Z,7.23
2023-04-09T05:07:22.078Z,7.25
2023-04-09T05:11:26.479Z,7.29
2023-04-09T05:15:29.690Z,7.25
2023-04-09T05:19:35.059Z,7.33
2023-04-09T05:23:38.196Z,7.35
2023-04-09T05:27:42.204Z,7.41
2023-04-09T05:31:47.052Z,7.43
2023-04-09T05:35:51.700Z,7.44
2023-04-09T05:39:55.608Z,7.39
2023-04-09T05:44:00.817Z,7.43
2023-04-09T05:48:05.650Z,7.45
2023-04-09T05:52:10.537Z,7.46
2023-04-09T05:56:17.529Z,7.50
2023-04-09T06:00:22.060Z,7.51
2023-04-09T06:04:25.254Z,7.54
2023-04-09T06:08:30.542Z,7.58
2023-04-09T06:12:36.018Z,7.60
2023-04-09T06:16:42.035Z,7.62
2023-04-09T06:20:45.428Z,7.64
2023-04-09T06:24:50.546Z,7.67
2023-04-09T06:28:54.249Z,7.70
2023-04-09T06:32:57.576Z,7.72
2023-04-09T06:37:00.510Z,7.73
2023-04-09T06:41:09.654Z,7.76
2023-04-09T06:45:13.270Z,7.78
2023-04-09T06:49:16.610Z,7.78
2023-04-09T06:53:20.625Z,7.80
2023-04-09T06:57:25.633Z,7.82
2023-04-09T07:01:28.898Z,7.86
2023-04-09T07:05:32.616Z,7.92
2023-04-09T07:09:37.279Z,8.00
2023-04-09T07:13:42.319Z,8.10
2023-04-09T07:17:45.718Z,8.16
2023-04-09T07:21:48.981Z,8.23
2023-04-09T07:25:52.307Z,8.33
2023-04-09T07:29:58.622Z,8.45
2023-04-09T07:34:02.138Z,8.52
2023-04-09T07:38:05.571Z,8.60
2023-04-09T07:42:09.134Z,8.65
2023-04-09T07:46:20.439Z,8.73
2023-04-09T07:50:24.417Z,8.78
2023-04-09T07:54:28.665Z,8.85
2023-04-09T07:58:31.998Z,8.90
2023-04-09T08:02:36.834Z,8.96
2023-04-09T08:06:40.370Z,9.01
2023-04-09T08:10:44.082Z,9.05
2023-04-09T08:14:47.381Z,9.06
2023-04-09T08:18:54.059Z,9.09
2023-04-09T08:22:57.998Z,9.12
2023-04-09T08:27:02.757Z,9.16
2023-04-09T08:31:06.709Z,9.20
2023-04-09T08:35:13.569Z,9.26
2023-04-09T08:39:17.436Z,9.33
2023-04-09T08:43:26.991Z,9.41
2023-04-09T08:47:38.610Z,9.55
2023-04-09T08:51:47.951Z,9.69
2023-04-09T08:55:51.141Z,9.78
2023-04-09T08:59:54.806Z,9.86
2023-04-09T09:04:01.194Z,9.94
2023-04-09T09:08:06.658Z,10.02
2023-04-09T09:12:10.033Z,10.12
2023-04-09T09:16:16.545Z,10.26
2023-04-09T09:20:22.315Z,10.40
2023-04-09T09:24:27.040Z,10.53
2023-04-09T09:28:37.043Z,10.67
2023-04-09T09:32:40.807Z,10.75
2023-04-09T09:36:44.714Z,10.85
2023-04-09T09:40:53.335Z,10.95
2023-04-09T09:44:57.212Z,10.99
2023-04-09T09:49:02.329Z,11.02
2023-04-09T09:53:07.239Z,11.03
2023-04-09T09:57:14.566Z,11.07
2023-04-09T10:01:20.932Z,11.12
2023-04-09T10:05:27.929Z,11.20
2023-04-09T10:09:32.400Z,11.27
2023-04-09T10:13:41.003Z,11.31
2023-04-09T10:17:44.221Z,11.32
2023-04-09T10:21:55.380Z,11.34
2023-04-09T10:25:58.674Z,11.37
2023-04-09T10:30:06.146Z,11.41
2023-04-09T10:34:10.873Z,11.45
2023-04-09T10:38:16.626Z,11.52
2023-04-09T10:42:24.862Z,11.58
2023-04-09T10:46:31.238Z,11.70
2023-04-09T10:50:36.452Z,11.80
2023-04-09T10:54:48.571Z,11.91
2023-04-09T10:58:52.130Z,12.01
2023-04-09T11:03:25.437Z,12.15
2023-04-09T11:07:30.197Z,12.30
2023-04-09T11:11:35.293Z,12.48
2023-04-09T11:15:38.655Z,12.66
2023-04-09T11:19:44.079Z,12.79
2023-04-09T11:23:53.195Z,12.93
2023-04-09T11:27:56.989Z,13.06
2023-04-09T11:32:02.046Z,13.33
2023-04-09T11:36:08.491Z,13.72
2023-04-09T11:40:18.322Z,14.19
2023-04-09T11:44:23.112Z,14.66
2023-04-09T11:48:26.475Z,15.21
2023-04-09T11:52:32.676Z,15.47
2023-04-09T11:56:37.809Z,15.57
2023-04-09T12:00:42.711Z,15.47
2023-04-09T12:04:51.728Z,15.42
2023-04-09T12:08:58.823Z,15.33
2023-04-09T12:13:06.904Z,15.22
2023-04-09T12:17:10.458Z,15.04
2023-04-09T12:21:13.805Z,14.91
2023-04-09T12:25:18.783Z,14.83
2023-04-09T12:29:22.673Z,14.78
2023-04-09T12:33:26.262Z,14.77
2023-04-09T12:37:29.538Z,14.78
2023-04-09T12:41:34.667Z,14.80
2023-04-09T12:45:38.514Z,14.79
2023-04-09T12:49:45.285Z,14.79
2023-04-09T12:53:48.454Z,14.83
2023-04-09T12:57:53.506Z,14.92
2023-04-09T13:01:56.585Z,14.92
2023-04-09T13:05:59.792Z,14.89
2023-04-09T13:10:03.016Z,14.83
2023-04-09T13:14:07.792Z,14.75
2023-04-09T13:18:11.436Z,14.59
2023-04-09T13:22:15.013Z,14.39
2023-04-09T13:26:18.036Z,14.09
2023-04-09T13:30:23.470Z,13.69
2023-04-09T13:34:27.052Z,13.23
2023-04-09T13:38:30.676Z,12.80
2023-04-09T13:42:35.248Z,12.51
2023-04-09T13:46:40.248Z,12.34
2023-04-09T13:50:43.574Z,12.24
2023-04-09T13:54:47.077Z,12.24
2023-04-09T13:58:50.445Z,12.31
2023-04-09T14:02:55.404Z,12.45
2023-04-09T14:06:59.322Z,12.60
2023-04-09T14:11:03.108Z,12.78
2023-04-09T14:15:07.609Z,12.94
2023-04-09T14:19:12.700Z,13.09
2023-04-09T14:23:16.369Z,13.27
2023-04-09T14:27:20.029Z,13.46
2023-04-09T14:31:23.410Z,13.60
2023-04-09T14:35:28.646Z,13.65
2023-04-09T14:39:31.971Z,13.68
2023-04-09T14:43:35.563Z,13.75
2023-04-09T14:47:38.556Z,13.93
2023-04-09T14:51:43.414Z,14.25
2023-04-09T14:55:46.308Z,14.61
2023-04-09T14:59:49.526Z,14.98
2023-04-09T15:03:52.861Z,15.36
2023-04-09T15:07:59.008Z,15.68
2023-04-09T15:12:03.504Z,15.91
2023-04-09T15:16:07.992Z,15.98
2023-04-09T15:20:12.157Z,15.84
2023-04-09T15:24:17.210Z,15.59
2023-04-09T15:28:20.551Z,15.23
2023-04-09T15:32:24.063Z,14.87
2023-04-09T15:40:32.345Z,14.20
2023-04-09T15:44:36.303Z,13.89
2023-04-09T15:48:40.102Z,13.60
2023-04-09T15:52:43.332Z,13.42
2023-04-09T15:56:48.061Z,13.22
2023-04-09T16:00:52.030Z,13.03
2023-04-09T16:04:55.486Z,12.86
2023-04-09T16:08:58.895Z,12.68
2023-04-09T16:13:04.666Z,12.54
2023-04-09T16:17:08.547Z,12.41
2023-04-09T16:21:12.180Z,12.22
2023-04-09T16:25:15.494Z,12.13
2023-04-09T16:29:19.850Z,11.97
2023-04-09T16:33:22.916Z,11.86
2023-04-09T16:37:26.923Z,11.74
2023-04-09T16:41:30.058Z,11.65
2023-04-09T16:45:34.905Z,11.52
2023-04-09T16:49:38.274Z,11.38
2023-04-09T16:53:41.712Z,11.28
2023-04-09T16:57:45.009Z,11.14
2023-04-09T17:01:50.470Z,11.01
2023-04-09T17:05:53.926Z,10.85
2023-04-09T17:09:57.694Z,10.69
2023-04-09T17:14:00.928Z,10.53
2023-04-09T17:18:06.038Z,10.36
2023-04-09T17:22:09.711Z,10.22
2023-04-09T17:26:13.251Z,10.04
2023-04-09T17:30:16.592Z,9.90
2023-04-09T17:34:21.622Z,9.82
2023-04-09T17:38:27.189Z,9.72
2023-04-09T17:42:30.703Z,9.70
2023-04-09T17:46:33.565Z,9.66
2023-04-09T17:50:40.644Z,9.62
2023-04-09T17:54:45.486Z,9.54
2023-04-09T17:58:49.244Z,9.40
2023-04-09T18:02:54.315Z,9.41
2023-04-09T18:06:59.277Z,9.44
2023-04-09T18:11:12.914Z,9.39
2023-04-09T18:15:17.284Z,9.40
2023-04-09T18:19:20.214Z,9.36
2023-04-09T18:23:24.837Z,9.34
2023-04-09T18:27:27.854Z,9.32
2023-04-09T18:31:31.502Z,9.40
2023-04-09T18:35:36.506Z,9.41
2023-04-09T18:39:41.831Z,9.39
2023-04-09T18:43:44.769Z,9.31
2023-04-09T18:47:48.321Z,9.23
2023-04-09T18:51:51.860Z,9.27
2023-04-09T18:55:57.382Z,9.24
2023-04-09T19:00:00.578Z,9.22
2023-04-09T19:04:03.752Z,9.21
2023-04-09T19:08:08.020Z,9.18
2023-04-09T19:12:12.958Z,9.18
2023-04-09T19:16:16.398Z,9.15
2023-04-09T19:20:20.228Z,9.15
2023-04-09T19:24:23.676Z,9.14
2023-04-09T19:28:28.482Z,9.14
2023-04-09T19:32:31.814Z,9.12
2023-04-09T19:36:35.753Z,9.12
2023-04-09T19:40:38.820Z,9.12
2023-04-09T19:44:46.148Z,9.13
2023-04-09T19:48:49.748Z,9.12
2023-04-09T19:52:56.342Z,9.10
2023-04-09T19:57:00.193Z,9.10
2023-04-09T20:01:05.179Z,9.06
2023-04-09T20:05:10.071Z,9.02
2023-04-09T20:09:13.708Z,8.97
2023-04-09T20:13:17.085Z,8.96
2023-04-09T20:17:21.886Z,8.91
2023-04-09T20:21:24.934Z,8.83
2023-04-09T20:25:34.986Z,8.78
2023-04-09T20:29:38.597Z,8.68
2023-04-09T20:33:43.542Z,8.61
2023-04-09T20:37:48.466Z,8.56
2023-04-09T20:41:51.877Z,8.51
2023-04-09T20:45:55.068Z,8.49
2023-04-09T20:50:00.359Z,8.48
2023-04-09T20:54:04.237Z,8.42
2023-04-09T20:58:08.654Z,8.38
2023-04-09T21:02:14.385Z,8.36
2023-04-09T21:06:19.269Z,8.36
2023-04-09T21:10:22.505Z,8.37
2023-04-09T21:14:25.992Z,8.39
2023-04-09T21:18:29.102Z,8.44
2023-04-09T21:22:37.919Z,8.45
2023-04-09T21:26:51.170Z,8.44
2023-04-09T21:30:55.766Z,8.44
2023-04-09T21:34:59.331Z,8.41
2023-04-09T21:39:05.022Z,8.37
2023-04-09T21:43:09.670Z,8.31
2023-04-09T21:47:13.606Z,8.27
2023-04-09T21:51:16.662Z,8.24
2023-04-09T21:55:21.357Z,8.21
2023-04-09T21:59:24.686Z,8.18
2023-04-09T22:03:28.411Z,8.13
2023-04-09T22:07:31.721Z,8.14
2023-04-09T22:11:36.367Z,8.15
2023-04-09T22:15:39.913Z,8.18
2023-04-09T22:19:43.918Z,8.19
2023-04-09T22:23:47.388Z,8.19
2023-04-09T22:27:55.378Z,8.17
2023-04-09T22:31:58.664Z,8.12
2023-04-09T22:36:02.240Z,8.08
2023-04-09T22:40:10.028Z,8.00
2023-04-09T22:44:15.173Z,7.96
2023-04-09T22:48:18.322Z,7.94
2023-04-09T22:52:22.044Z,7.96
2023-04-09T22:56:25.617Z,7.97
2023-04-09T23:00:30.849Z,8.01
2023-04-09T23:04:35.038Z,8.03
2023-04-09T23:08:40.639Z,8.04
2023-04-09T23:12:44.632Z,8.03
2023-04-09T23:16:50.215Z,7.99
2023-04-09T23:20:53.453Z,7.94
2023-04-09T23:24:57.129Z,7.93
2023-04-09T23:29:00.526Z,7.93
2023-04-09T23:33:05.706Z,7.94
2023-04-09T23:37:09.753Z,7.94
2023-04-09T23:41:14.119Z,7.97
2023-04-09T23:45:17.072Z,8.00
2023-04-09T23:49:22.070Z,8.04
2023-04-09T23:53:25.166Z,8.08
2023-04-09T23:57:29.183Z,8.10
